HTDA/DAR METAR and TAF weather

Enter ICAO airport designator
Station Type Date Time Source
HTDA METAR 2018/04/26 14:00 UTC NOAA

HTDA 261400Z 12012KT 9999 FEW021 SCT080 30/24 Q1010 NOSIG


Station Type Date Time Source
HTDA Decoded METAR 2018/04/26 14:00 UTC NOAA

Dar Es Salaam Airport, Tanzania (HTDA) 06-52S 039-12E 55M
Apr 26, 2018 - 10:00 AM EDT / 2018.04.26 1400 UTC
Wind: from the ESE (120 degrees) at 14 MPH (12 KT):0
Visibility: greater than 7 mile(s):0
Sky conditions: partly cloudy
Temperature: 86 F (30 C)
Heat index: 95.0 F (35.0 C):1
Dew Point: 75 F (24 C)
Relative Humidity: 70%
Pressure (altimeter): 29.83 in. Hg (1010 hPa)
ob: HTDA 261400Z 12012KT 9999 FEW021 SCT080 30/24 Q1010 NOSIG
cycle: 14

Station Type Date Time Source
HTDA TAF 2018/04/26 12:58 UTC NOAA

TAF HTDA 261100Z 2612/2718 12010KT 9999 BKN024
BECMG 2618/2621 00000KT FEW018 PROB30
TEMPO 2706/2710 18010 TSRA BKN020 FEW021CB


Example: see airport list